createdAt,value
2017-08-25T17:51:32.683Z,24.30
2017-08-25T17:52:35.298Z,24.20
2017-08-25T17:53:37.912Z,24.10
2017-08-25T17:54:40.763Z,24.10
2017-08-25T17:55:44.234Z,24.00
2017-08-25T17:56:47.764Z,23.90
2017-08-25T17:57:51.053Z,23.90
2017-08-25T17:58:53.614Z,23.90
2017-08-25T17:59:56.257Z,23.80
2017-08-25T18:01:00.983Z,23.80
2017-08-25T18:02:03.559Z,23.80
2017-08-25T18:03:07.445Z,23.80
2017-08-25T18:04:10.035Z,23.80
2017-08-25T18:05:12.924Z,23.80
2017-08-25T18:06:15.468Z,23.80
2017-08-25T18:07:18.042Z,23.80
2017-08-25T18:08:20.565Z,23.80
2017-08-25T18:09:24.087Z,23.70
2017-08-25T18:10:26.628Z,23.70
2017-08-25T18:11:29.186Z,23.70
2017-08-25T18:12:32.176Z,23.80
2017-08-25T18:13:35.022Z,23.80
2017-08-25T18:14:37.546Z,23.80
2017-08-25T18:15:40.569Z,23.80
2017-08-25T18:16:43.210Z,23.70
2017-08-25T18:17:45.952Z,23.70
2017-08-25T18:18:48.566Z,23.70
2017-08-25T18:19:51.871Z,23.70
2017-08-25T18:20:54.406Z,23.60
2017-08-25T18:21:56.976Z,23.70
2017-08-25T18:22:59.612Z,23.60
2017-08-25T18:24:02.532Z,23.70
2017-08-25T18:25:05.171Z,23.60
2017-08-25T18:26:07.910Z,23.70
2017-08-25T18:27:10.455Z,23.70
2017-08-25T18:28:12.991Z,23.70
2017-08-25T18:29:15.544Z,23.70
2017-08-25T18:30:18.074Z,23.70
2017-08-25T18:31:20.941Z,23.70
2017-08-25T18:32:24.237Z,23.70
2017-08-25T18:33:26.880Z,23.70
2017-08-25T18:34:29.525Z,23.70
2017-08-25T18:35:32.954Z,23.70
2017-08-25T18:36:36.710Z,23.70
2017-08-25T18:37:39.264Z,23.70
2017-08-25T18:38:41.877Z,23.70
2017-08-25T18:39:44.927Z,23.70
2017-08-25T18:40:47.524Z,23.70
2017-08-25T18:41:50.275Z,23.70
2017-08-25T18:42:53.031Z,23.70
2017-08-25T18:43:55.740Z,23.70
2017-08-25T18:44:58.297Z,23.70
2017-08-25T18:46:00.836Z,23.70
2017-08-25T18:47:03.371Z,23.70
2017-08-25T18:48:05.944Z,23.70
2017-08-25T18:49:08.572Z,23.70
2017-08-25T18:50:11.286Z,23.70
2017-08-25T18:51:14.011Z,23.70
2017-08-25T18:52:16.752Z,23.70
2017-08-25T18:53:19.373Z,23.70
2017-08-25T18:54:21.911Z,23.70
2017-08-25T18:55:24.435Z,23.70
2017-08-25T18:56:27.063Z,23.70
2017-08-25T18:57:29.674Z,23.60
2017-08-25T18:58:32.239Z,23.70
2017-08-25T18:59:34.790Z,23.60
2017-08-25T19:00:37.458Z,23.70
2017-08-25T19:01:39.999Z,23.70
2017-08-25T19:02:43.350Z,23.70
2017-08-25T19:03:45.972Z,23.70
2017-08-25T19:04:48.600Z,23.70
2017-08-25T19:05:51.226Z,23.70
2017-08-25T19:06:53.859Z,23.70
2017-08-25T19:07:56.427Z,23.60
2017-08-25T19:08:58.989Z,23.60
2017-08-25T19:10:01.827Z,23.60
2017-08-25T19:11:04.467Z,23.60
2017-08-25T19:12:06.998Z,23.60
2017-08-25T19:13:09.533Z,23.60
2017-08-25T19:14:12.070Z,23.70
2017-08-25T19:15:14.617Z,23.60
2017-08-25T19:16:17.203Z,23.60
2017-08-25T19:17:20.527Z,23.70
2017-08-25T19:18:23.183Z,23.70
2017-08-25T19:19:26.012Z,23.70
2017-08-25T19:20:28.565Z,23.60
2017-08-25T19:21:31.246Z,23.60
2017-08-25T19:22:33.927Z,23.60
2017-08-25T19:23:36.528Z,23.60
2017-08-25T19:24:39.139Z,23.60
2017-08-25T19:25:41.676Z,23.60
2017-08-25T19:26:44.494Z,23.60
2017-08-25T19:27:47.050Z,23.60
2017-08-25T19:28:49.648Z,23.60
2017-08-25T19:29:52.256Z,23.60
2017-08-25T19:30:54.915Z,23.60
2017-08-25T19:31:57.441Z,23.60
2017-08-25T19:33:00.242Z,23.60
2017-08-25T19:34:02.779Z,23.60
2017-08-25T19:35:05.354Z,23.60
2017-08-25T19:36:07.878Z,23.60
2017-08-25T19:37:11.232Z,23.60
2017-08-25T19:38:13.762Z,23.60
2017-08-25T19:39:16.609Z,23.60
2017-08-25T19:40:22.862Z,23.60
2017-08-25T19:41:25.486Z,23.60
2017-08-25T19:42:28.835Z,23.60
2017-08-25T19:43:32.688Z,23.60
2017-08-25T19:44:35.630Z,23.60
2017-08-25T19:45:40.191Z,23.60
2017-08-25T19:46:47.209Z,23.60
2017-08-25T19:47:53.145Z,23.60
2017-08-25T19:48:56.263Z,23.60
2017-08-25T19:50:01.944Z,23.60
2017-08-25T19:51:05.448Z,23.60
2017-08-25T19:52:10.176Z,23.50
2017-08-25T19:53:14.099Z,23.50
2017-08-25T19:54:17.317Z,23.50
2017-08-25T19:55:22.568Z,23.50
2017-08-25T19:56:27.498Z,23.50
2017-08-25T19:57:30.407Z,23.50
2017-08-25T19:58:34.072Z,23.50
2017-08-25T19:59:37.028Z,23.50
2017-08-25T20:00:39.939Z,23.50
2017-08-25T20:01:43.986Z,23.50
2017-08-25T20:02:46.883Z,23.50
2017-08-25T20:03:50.542Z,23.50
2017-08-25T20:04:54.891Z,23.50
2017-08-25T20:05:57.720Z,23.50
2017-08-25T20:07:00.900Z,23.50
2017-08-25T20:08:04.838Z,23.50
2017-08-25T20:09:07.978Z,23.50
2017-08-25T20:10:11.391Z,23.50
2017-08-25T20:11:13.927Z,23.50
2017-08-25T20:12:16.598Z,23.50
2017-08-25T20:13:19.132Z,23.50
2017-08-25T20:14:22.464Z,23.40
2017-08-25T20:15:25.027Z,23.40
2017-08-25T20:16:29.015Z,23.40
2017-08-25T20:17:31.616Z,23.40
2017-08-25T20:18:34.159Z,23.40
2017-08-25T20:19:36.809Z,23.50
2017-08-25T20:20:39.588Z,23.50
2017-08-25T20:21:42.167Z,23.50
2017-08-25T20:22:45.487Z,23.50
2017-08-25T20:23:48.041Z,23.50
2017-08-25T20:24:52.211Z,23.50
2017-08-25T20:25:54.988Z,23.50
2017-08-25T20:26:58.411Z,23.50
2017-08-25T20:28:01.177Z,23.50
2017-08-25T20:29:04.564Z,23.50
2017-08-25T20:30:07.144Z,23.50
2017-08-25T20:31:09.745Z,23.50
2017-08-25T20:32:13.090Z,23.50
2017-08-25T20:33:16.383Z,23.50
2017-08-25T20:34:18.941Z,23.50
2017-08-25T20:35:22.280Z,23.50
2017-08-25T20:36:25.565Z,23.50
2017-08-25T20:37:28.136Z,23.50
2017-08-25T20:38:31.475Z,23.50
2017-08-25T20:39:34.113Z,23.50
2017-08-25T20:40:39.946Z,23.50
2017-08-25T20:41:44.402Z,23.50
2017-08-25T20:42:47.117Z,23.50
2017-08-25T20:43:49.799Z,23.50
2017-08-25T20:44:53.926Z,23.50
2017-08-25T20:45:56.553Z,23.50
2017-08-25T20:46:59.199Z,23.50
2017-08-25T20:48:01.775Z,23.50
2017-08-25T20:49:04.429Z,23.50
2017-08-25T20:50:06.968Z,23.50
2017-08-25T20:51:09.673Z,23.50
2017-08-25T20:52:12.315Z,23.50
2017-08-25T20:53:14.854Z,23.50
2017-08-25T20:54:19.241Z,23.50
2017-08-25T20:55:21.917Z,23.50
2017-08-25T20:56:24.568Z,23.50
2017-08-25T20:57:27.482Z,23.50
2017-08-25T20:58:30.970Z,23.50
2017-08-25T20:59:34.994Z,23.50
2017-08-25T21:00:37.567Z,23.50
2017-08-25T21:01:40.627Z,23.50
2017-08-25T21:02:43.230Z,23.50
2017-08-25T21:03:45.957Z,23.50
2017-08-25T21:04:48.747Z,23.50
2017-08-25T21:05:52.106Z,23.50
2017-08-25T21:06:55.246Z,23.50
2017-08-25T21:07:57.805Z,23.50
2017-08-25T21:09:00.418Z,23.50
2017-08-25T21:10:03.773Z,23.50
2017-08-25T21:11:06.370Z,23.50
2017-08-25T21:12:09.818Z,23.50
2017-08-25T21:13:12.625Z,23.50
2017-08-25T21:14:15.194Z,23.50
2017-08-25T21:15:17.772Z,23.50
2017-08-25T21:16:20.335Z,23.50
2017-08-25T21:17:23.047Z,23.50
2017-08-25T21:18:25.587Z,23.50
2017-08-25T21:19:28.212Z,23.50
2017-08-25T21:20:30.748Z,23.50
2017-08-25T21:21:33.359Z,23.50
2017-08-25T21:22:36.098Z,23.50
2017-08-25T21:23:38.723Z,23.50
2017-08-25T21:24:42.592Z,23.50
2017-08-25T21:25:45.127Z,23.50
2017-08-25T21:26:47.743Z,23.50
2017-08-25T21:27:50.307Z,23.50
2017-08-25T21:28:52.945Z,23.50
2017-08-25T21:29:55.530Z,23.50
2017-08-25T21:30:58.483Z,23.50
2017-08-25T21:32:01.819Z,23.50
2017-08-25T21:33:05.235Z,23.50
2017-08-25T21:34:07.788Z,23.50
2017-08-25T21:35:10.326Z,23.50
2017-08-25T21:36:12.863Z,23.50
2017-08-25T21:37:15.473Z,23.50
2017-08-25T21:38:18.164Z,23.50
2017-08-25T21:39:20.990Z,23.50
2017-08-25T21:40:23.636Z,23.50
2017-08-25T21:41:26.575Z,23.50
2017-08-25T21:42:29.461Z,23.50
2017-08-25T21:43:32.117Z,23.50
2017-08-25T21:44:34.667Z,23.50
2017-08-25T21:45:37.516Z,23.50
2017-08-25T21:46:40.086Z,23.50
2017-08-25T21:47:42.849Z,23.50
2017-08-25T21:48:45.488Z,23.50
2017-08-25T21:49:48.024Z,23.50
2017-08-25T21:50:50.889Z,23.50
2017-08-25T21:51:53.497Z,23.50
2017-08-25T21:52:56.251Z,23.50
2017-08-25T21:53:58.831Z,23.50
2017-08-25T21:55:01.479Z,23.30
2017-08-25T21:56:04.099Z,23.30
2017-08-25T21:57:07.001Z,23.20
2017-08-25T21:58:10.363Z,23.00
2017-08-25T21:59:12.988Z,22.90
2017-08-25T22:00:15.620Z,22.80
2017-08-25T22:01:18.268Z,22.70
2017-08-25T22:02:20.841Z,22.60
2017-08-25T22:03:23.390Z,22.60
2017-08-25T22:04:26.009Z,22.40
2017-08-25T22:05:28.561Z,22.30
2017-08-25T22:06:31.112Z,22.20
2017-08-25T22:07:33.667Z,22.20
2017-08-25T22:08:36.279Z,22.30
2017-08-25T22:09:39.151Z,22.30
2017-08-25T22:10:41.790Z,22.40
2017-08-25T22:11:44.495Z,22.40
2017-08-25T22:12:47.056Z,22.40
2017-08-25T22:13:50.391Z,22.50
2017-08-25T22:14:53.771Z,22.50
2017-08-25T22:15:56.947Z,22.50
2017-08-25T22:16:59.904Z,22.60
2017-08-25T22:18:02.444Z,22.60
2017-08-25T22:19:05.007Z,22.70
2017-08-25T22:20:08.614Z,22.70
2017-08-25T22:21:11.252Z,22.80
2017-08-25T22:22:13.783Z,22.80
2017-08-25T22:23:17.111Z,22.80
2017-08-25T22:24:19.745Z,22.80
2017-08-25T22:25:22.314Z,22.80
2017-08-25T22:26:24.890Z,22.80
2017-08-25T22:27:27.510Z,22.90
2017-08-25T22:28:30.134Z,22.90
2017-08-25T22:29:32.694Z,22.90
2017-08-25T22:30:35.244Z,22.90
2017-08-25T22:31:37.818Z,23.00
2017-08-25T22:32:40.580Z,23.00
2017-08-25T22:33:43.198Z,23.10
2017-08-25T22:34:45.835Z,23.10
2017-08-25T22:35:48.447Z,23.10
2017-08-25T22:36:51.258Z,23.10
2017-08-25T22:37:53.948Z,23.10
2017-08-25T22:38:56.496Z,23.20
2017-08-25T22:39:59.042Z,23.20
2017-08-25T22:41:02.508Z,23.20
2017-08-25T22:42:05.119Z,23.20
2017-08-25T22:43:07.653Z,23.20
2017-08-25T22:44:10.354Z,23.30
2017-08-25T22:45:12.972Z,23.30
2017-08-25T22:46:15.521Z,23.20
2017-08-25T22:47:18.173Z,23.30
2017-08-25T22:48:20.800Z,23.30
2017-08-25T22:49:23.556Z,23.30
2017-08-25T22:50:26.096Z,23.30
2017-08-25T22:51:28.684Z,23.40
2017-08-25T22:52:32.022Z,23.40
2017-08-25T22:53:34.554Z,23.40
2017-08-25T22:54:37.162Z,23.40
2017-08-25T22:55:39.702Z,23.40
2017-08-25T22:56:42.336Z,23.40
2017-08-25T22:57:44.957Z,23.50
2017-08-25T22:58:47.590Z,23.50
2017-08-25T22:59:50.142Z,23.50
2017-08-25T23:00:52.825Z,23.50
2017-08-25T23:01:55.370Z,23.50
2017-08-25T23:02:58.367Z,23.40
2017-08-25T23:04:01.731Z,23.50
2017-08-25T23:05:04.275Z,23.40
2017-08-25T23:06:06.884Z,23.40
2017-08-25T23:07:09.518Z,23.40
2017-08-25T23:08:12.058Z,23.40
2017-08-25T23:09:14.590Z,23.30
2017-08-25T23:10:17.825Z,23.30
2017-08-25T23:11:20.366Z,23.30
2017-08-25T23:12:22.906Z,23.20
2017-08-25T23:13:25.468Z,23.20
2017-08-25T23:14:28.164Z,23.20
2017-08-25T23:15:31.459Z,23.20
2017-08-25T23:16:34.022Z,23.20
2017-08-25T23:17:36.644Z,23.10
2017-08-25T23:18:39.215Z,23.10
2017-08-25T23:19:41.788Z,23.10
2017-08-25T23:20:44.415Z,23.10
2017-08-25T23:21:47.122Z,23.10
2017-08-25T23:22:49.767Z,23.10
2017-08-25T23:23:52.308Z,23.10
2017-08-25T23:24:54.878Z,23.10
2017-08-25T23:25:57.426Z,23.00
2017-08-25T23:27:00.004Z,23.10
2017-08-25T23:28:02.600Z,23.10
2017-08-25T23:29:05.212Z,23.10
2017-08-25T23:30:07.753Z,23.00
2017-08-25T23:31:10.375Z,23.00
2017-08-25T23:32:12.912Z,23.10
2017-08-25T23:33:15.552Z,23.00
2017-08-25T23:34:18.175Z,23.00
2017-08-25T23:35:20.727Z,23.00
2017-08-25T23:36:23.279Z,23.00
2017-08-25T23:37:25.933Z,23.00
2017-08-25T23:38:28.570Z,23.00
2017-08-25T23:39:31.119Z,23.00
2017-08-25T23:40:33.678Z,23.00
2017-08-25T23:41:36.262Z,23.00
2017-08-25T23:42:38.965Z,23.00
2017-08-25T23:43:41.828Z,23.00
2017-08-25T23:44:45.263Z,23.00
2017-08-25T23:45:47.807Z,23.00
2017-08-25T23:46:50.350Z,23.00
2017-08-25T23:47:52.938Z,23.00
2017-08-25T23:48:55.493Z,23.00
2017-08-25T23:49:58.034Z,23.00
2017-08-25T23:51:00.568Z,23.00
2017-08-25T23:52:03.103Z,22.90
2017-08-25T23:53:06.694Z,23.00
2017-08-25T23:54:10.047Z,22.90
2017-08-25T23:55:12.578Z,22.90
2017-08-25T23:56:15.884Z,23.00
2017-08-25T23:57:18.418Z,23.00
2017-08-25T23:58:20.958Z,23.00
2017-08-25T23:59:23.491Z,23.00
